Alanreed, Texas
Current Conditions -  °F | °C
As of 12:55 AM on Monday 22 Dec 2014 (Local Time) from KPPA Reporting Station
Clear Clear  
Wind Chill: 31°   Ceiling: Unl
Heat Index: 38°   Visibility: 10mi
Dew Point: 28°   Wind: 13mph
Humidity: 67%   Direction: 270°W
Pressure: 29.57"   Gusts: NA
Location:  35.21°N, 100.74°W
Report Text: KPPA 220655Z AUTO 27011KT 10SM CLR 04/M02 A2957 RMK AO2 T00361021 PNO
Loading
Personal Weather Stations






























Interactive Weather Map New forecast layout! Learn more

10-Day Weather Forecast

Advertisements
Track Severe Weather on mobile